createdAt,value
2023-01-17T00:02:19.248Z,74.08
2023-01-17T00:05:05.525Z,74.08
2023-01-17T00:07:51.819Z,74.05
2023-01-17T00:10:23.290Z,74.07
2023-01-17T00:13:00.733Z,74.10
2023-01-17T00:15:30.740Z,74.18
2023-01-17T00:17:58.756Z,74.25
2023-01-17T00:20:48.323Z,74.41
2023-01-17T00:23:39.114Z,74.49
2023-01-17T00:26:14.721Z,74.62
2023-01-17T00:28:44.330Z,74.72
2023-01-17T00:31:14.075Z,74.76
2023-01-17T00:33:41.831Z,74.87
2023-01-17T00:36:10.544Z,74.93
2023-01-17T00:38:40.002Z,75.06
2023-01-17T00:41:11.136Z,75.15
2023-01-17T00:43:57.390Z,75.16
2023-01-17T00:46:44.175Z,75.13
2023-01-17T00:49:30.148Z,75.20
2023-01-17T00:52:16.404Z,75.28
2023-01-17T00:55:02.703Z,75.42
2023-01-17T00:57:48.950Z,75.64
2023-01-17T01:00:37.780Z,75.75
2023-01-17T01:03:30.053Z,75.86
2023-01-17T01:06:17.270Z,75.92
2023-01-17T01:09:03.104Z,75.86
2023-01-17T01:11:49.526Z,75.60
2023-01-17T01:14:35.669Z,75.67
2023-01-17T01:17:21.877Z,75.47
2023-01-17T01:20:08.063Z,75.01
2023-01-17T01:22:54.034Z,74.75
2023-01-17T01:25:40.108Z,74.40
2023-01-17T01:28:33.140Z,74.27
2023-01-17T01:31:24.085Z,74.18
2023-01-17T01:33:55.752Z,74.04
2023-01-17T01:36:35.963Z,73.91
2023-01-17T01:39:21.264Z,73.95
2023-01-17T01:42:05.349Z,74.10
2023-01-17T01:44:44.860Z,74.08
2023-01-17T01:47:40.492Z,74.13
2023-01-17T01:50:14.640Z,74.21
2023-01-17T01:52:48.816Z,74.37
2023-01-17T01:55:33.459Z,74.43
2023-01-17T01:58:21.041Z,74.51
2023-01-17T02:00:51.790Z,74.60
2023-01-17T02:03:30.681Z,74.64
2023-01-17T02:06:21.194Z,74.69
2023-01-17T02:08:54.921Z,74.66
2023-01-17T02:11:37.738Z,74.71
2023-01-17T02:14:14.090Z,74.71
2023-01-17T02:17:12.295Z,74.72
2023-01-17T02:20:20.536Z,74.75
2023-01-17T02:23:37.855Z,74.81
2023-01-17T02:26:50.139Z,74.86
2023-01-17T02:29:57.650Z,74.88
2023-01-17T02:32:39.495Z,74.97
2023-01-17T02:35:15.899Z,75.17
2023-01-17T02:38:13.423Z,75.38
2023-01-17T02:40:55.090Z,75.51
2023-01-17T02:43:24.120Z,75.56
2023-01-17T02:45:51.642Z,75.69
2023-01-17T02:48:23.846Z,75.80
2023-01-17T02:51:12.303Z,75.82
2023-01-17T02:54:05.115Z,75.66
2023-01-17T02:56:40.551Z,75.40
2023-01-17T02:59:13.739Z,75.15
2023-01-17T03:01:49.916Z,74.75
2023-01-17T03:04:31.450Z,74.49
2023-01-17T03:07:03.522Z,74.54
2023-01-17T03:09:32.599Z,74.36
2023-01-17T03:12:02.344Z,74.26
2023-01-17T03:14:33.311Z,74.22
2023-01-17T03:17:00.767Z,74.09
2023-01-17T03:19:28.227Z,74.09
2023-01-17T03:21:55.972Z,74.15
2023-01-17T03:24:23.611Z,74.18
2023-01-17T03:26:51.300Z,74.30
2023-01-17T03:29:18.543Z,74.34
2023-01-17T03:31:46.207Z,74.42
2023-01-17T03:34:13.963Z,74.42
2023-01-17T03:36:41.669Z,74.47
2023-01-17T03:39:09.499Z,74.55
2023-01-17T03:41:36.975Z,74.64
2023-01-17T03:44:05.133Z,74.67
2023-01-17T03:46:32.576Z,74.80
2023-01-17T03:49:00.396Z,74.80
2023-01-17T03:51:28.115Z,74.89
2023-01-17T03:53:59.061Z,74.91
2023-01-17T03:56:26.580Z,74.99
2023-01-17T03:59:00.218Z,75.03
2023-01-17T04:01:34.154Z,75.18
2023-01-17T04:04:10.243Z,75.11
2023-01-17T04:06:47.493Z,75.03
2023-01-17T04:09:21.248Z,75.11
2023-01-17T04:11:52.749Z,75.50
2023-01-17T04:14:23.545Z,75.70
2023-01-17T04:16:51.225Z,75.82
2023-01-17T04:19:19.285Z,75.87
2023-01-17T04:21:46.990Z,75.88
2023-01-17T04:24:15.863Z,75.76
2023-01-17T04:26:44.027Z,75.78
2023-01-17T04:29:14.127Z,75.75
2023-01-17T04:31:51.132Z,75.68
2023-01-17T04:34:25.353Z,75.54
2023-01-17T04:36:56.303Z,75.44
2023-01-17T04:39:24.040Z,75.41
2023-01-17T04:41:51.633Z,75.37
2023-01-17T04:44:19.388Z,75.37
2023-01-17T04:46:46.825Z,75.31
2023-01-17T04:49:14.491Z,75.26
2023-01-17T04:51:42.522Z,75.22
2023-01-17T04:54:09.903Z,75.24
2023-01-17T04:56:37.603Z,75.30
2023-01-17T04:59:05.126Z,75.51
2023-01-17T05:01:32.751Z,75.72
2023-01-17T05:04:00.190Z,75.88
2023-01-17T05:06:27.731Z,76.13
2023-01-17T05:08:55.312Z,76.26
2023-01-17T05:11:22.891Z,76.40
2023-01-17T05:13:50.614Z,76.52
2023-01-17T05:16:19.310Z,76.61
2023-01-17T05:18:46.986Z,76.80
2023-01-17T05:21:14.712Z,77.20
2023-01-17T05:23:42.561Z,77.20
2023-01-17T05:26:10.238Z,77.40
2023-01-17T05:28:37.809Z,77.49
2023-01-17T05:31:05.887Z,77.62
2023-01-17T05:33:33.421Z,77.69
2023-01-17T05:36:01.236Z,77.86
2023-01-17T05:38:29.076Z,78.04
2023-01-17T05:41:04.328Z,78.22
2023-01-17T05:43:32.050Z,78.32
2023-01-17T05:45:59.793Z,78.46
2023-01-17T05:48:27.340Z,78.54
2023-01-17T05:50:55.557Z,78.65
2023-01-17T05:53:23.094Z,78.26
2023-01-17T05:55:50.828Z,78.03
2023-01-17T05:58:21.718Z,77.75
2023-01-17T06:00:49.758Z,77.63
2023-01-17T06:03:17.689Z,77.55
2023-01-17T06:05:46.393Z,77.58
2023-01-17T06:08:13.891Z,77.70
2023-01-17T06:10:41.494Z,77.82
2023-01-17T06:13:13.733Z,77.62
2023-01-17T06:15:41.670Z,77.50
2023-01-17T06:18:13.357Z,77.76
2023-01-17T06:20:41.612Z,77.91
2023-01-17T06:23:13.777Z,77.94
2023-01-17T06:25:44.218Z,78.07
2023-01-17T06:28:15.672Z,78.24
2023-01-17T06:30:44.088Z,78.40
2023-01-17T06:33:12.795Z,78.53
2023-01-17T06:35:50.632Z,78.64
2023-01-17T06:38:18.862Z,78.86
2023-01-17T06:40:46.558Z,78.96
2023-01-17T06:43:14.232Z,78.93
2023-01-17T06:45:41.898Z,79.12
2023-01-17T06:48:09.723Z,79.25
2023-01-17T06:50:37.744Z,79.39
2023-01-17T06:53:06.826Z,79.48
2023-01-17T06:55:36.827Z,79.59
2023-01-17T06:58:04.619Z,79.75
2023-01-17T07:00:34.410Z,79.85
2023-01-17T07:03:02.771Z,79.85
2023-01-17T07:05:30.660Z,79.88
2023-01-17T07:07:58.117Z,80.03
2023-01-17T07:10:25.766Z,80.00
2023-01-17T07:12:59.749Z,79.93
2023-01-17T07:15:27.562Z,79.89
2023-01-17T07:17:55.209Z,79.86
2023-01-17T07:20:22.703Z,79.86
2023-01-17T07:22:50.173Z,79.77
2023-01-17T07:25:19.599Z,79.56
2023-01-17T07:27:47.412Z,79.45
2023-01-17T07:30:15.547Z,79.59
2023-01-17T07:32:43.495Z,79.69
2023-01-17T07:35:10.859Z,79.91
2023-01-17T07:37:39.162Z,80.01
2023-01-17T07:40:07.846Z,80.09
2023-01-17T07:42:35.419Z,80.07
2023-01-17T07:45:03.282Z,79.99
2023-01-17T07:47:32.801Z,80.06
2023-01-17T07:50:01.395Z,79.79
2023-01-17T07:52:28.938Z,80.05
2023-01-17T07:54:56.640Z,80.01
2023-01-17T07:57:24.404Z,79.90
2023-01-17T07:59:52.243Z,79.86
2023-01-17T08:02:23.303Z,79.82
2023-01-17T08:04:51.068Z,79.84
2023-01-17T08:07:18.756Z,79.99
2023-01-17T08:09:48.148Z,80.06
2023-01-17T08:12:16.706Z,80.08
2023-01-17T08:14:44.383Z,80.22
2023-01-17T08:17:17.603Z,80.20
2023-01-17T08:19:45.322Z,80.28
2023-01-17T08:22:12.742Z,80.23
2023-01-17T08:24:41.587Z,80.07
2023-01-17T08:27:09.421Z,79.51
2023-01-17T08:29:36.962Z,79.29
2023-01-17T08:32:04.846Z,79.16
2023-01-17T08:34:33.754Z,78.64
2023-01-17T08:37:01.564Z,78.51
2023-01-17T08:39:29.176Z,78.29
2023-01-17T08:41:56.953Z,78.41
2023-01-17T08:44:24.781Z,78.36
2023-01-17T08:46:52.554Z,78.40
2023-01-17T08:49:20.234Z,78.44
2023-01-17T08:51:47.786Z,78.46
2023-01-17T08:54:16.136Z,78.34
2023-01-17T08:56:43.842Z,78.27
2023-01-17T08:59:11.904Z,78.21
2023-01-17T09:01:44.495Z,78.06
2023-01-17T09:04:12.659Z,78.06
2023-01-17T09:06:44.779Z,78.01
2023-01-17T09:09:13.228Z,77.96
2023-01-17T09:11:41.139Z,77.92
2023-01-17T09:14:13.426Z,77.69
2023-01-17T09:16:41.040Z,77.66
2023-01-17T09:19:09.815Z,77.82
2023-01-17T09:21:37.537Z,78.04
2023-01-17T09:24:05.513Z,78.37
2023-01-17T09:26:33.355Z,78.61
2023-01-17T09:29:01.055Z,79.23
2023-01-17T09:31:28.630Z,79.54
2023-01-17T09:33:58.240Z,79.58
2023-01-17T09:36:29.362Z,79.66
2023-01-17T09:38:58.641Z,79.59
2023-01-17T09:42:00.123Z,79.63
2023-01-17T09:44:35.942Z,79.58
2023-01-17T09:47:39.721Z,79.59
2023-01-17T09:50:33.415Z,79.77
2023-01-17T09:53:06.026Z,79.89
2023-01-17T09:55:59.053Z,79.84
2023-01-17T09:58:38.156Z,79.81
2023-01-17T10:01:23.394Z,79.69
2023-01-17T10:04:20.968Z,79.85
2023-01-17T10:07:09.043Z,80.05
2023-01-17T10:10:04.821Z,80.16
2023-01-17T10:16:10.251Z,80.56
2023-01-17T10:19:24.567Z,80.83
2023-01-17T10:22:03.748Z,80.93
2023-01-17T10:25:00.574Z,81.16
2023-01-17T10:27:36.646Z,80.83
2023-01-17T10:30:24.111Z,80.75
2023-01-17T10:32:52.010Z,80.99
2023-01-17T10:35:27.072Z,81.24
2023-01-17T10:37:58.165Z,81.55
2023-01-17T10:40:50.786Z,81.59
2023-01-17T10:43:29.744Z,81.70
2023-01-17T10:45:58.041Z,81.63
2023-01-17T10:48:38.838Z,81.76
2023-01-17T10:51:17.873Z,81.92
2023-01-17T10:54:01.842Z,81.89
2023-01-17T10:56:30.413Z,81.53
2023-01-17T10:59:21.934Z,81.40
2023-01-17T11:01:51.220Z,81.19
2023-01-17T11:04:27.127Z,81.00
2023-01-17T11:07:18.656Z,80.92
2023-01-17T11:09:55.532Z,81.02
2023-01-17T11:12:45.102Z,81.18
2023-01-17T11:15:19.259Z,80.77
2023-01-17T11:17:55.281Z,80.42
2023-01-17T11:20:45.567Z,80.35
2023-01-17T11:23:21.496Z,79.91
2023-01-17T11:26:01.948Z,80.15
2023-01-17T11:28:32.797Z,80.24
2023-01-17T11:31:08.397Z,80.16
2023-01-17T11:33:51.164Z,80.13
2023-01-17T11:36:31.083Z,80.16
2023-01-17T11:39:18.759Z,79.98
2023-01-17T11:41:47.599Z,79.79
2023-01-17T11:44:35.808Z,79.45
2023-01-17T11:47:16.413Z,79.35
2023-01-17T11:49:47.000Z,79.44
2023-01-17T11:52:33.051Z,79.51
2023-01-17T11:55:00.865Z,79.52
2023-01-17T11:57:32.751Z,79.47
2023-01-17T12:00:20.585Z,79.16
2023-01-17T12:03:05.511Z,80.12
2023-01-17T12:05:53.200Z,78.17
2023-01-17T12:08:57.577Z,76.93
2023-01-17T12:12:07.826Z,77.60
2023-01-17T12:15:13.139Z,76.87
2023-01-17T12:18:05.620Z,75.87
2023-01-17T12:20:55.313Z,75.33
2023-01-17T12:23:47.798Z,74.98
2023-01-17T12:26:36.396Z,73.57
2023-01-17T12:29:32.038Z,74.23
2023-01-17T12:32:32.002Z,74.04
2023-01-17T12:35:07.924Z,72.95
2023-01-17T12:37:45.472Z,74.08
2023-01-17T12:40:24.028Z,73.90
2023-01-17T12:43:19.226Z,72.59
2023-01-17T12:45:49.409Z,73.27
2023-01-17T12:48:20.667Z,72.75
2023-01-17T12:50:56.777Z,72.93
2023-01-17T12:53:52.383Z,72.76
2023-01-17T12:56:37.133Z,72.59
2023-01-17T12:59:25.870Z,72.84
2023-01-17T13:01:59.005Z,72.90
2023-01-17T13:04:46.881Z,73.16
2023-01-17T13:07:24.683Z,72.62
2023-01-17T13:10:03.656Z,72.13
2023-01-17T13:12:33.569Z,72.59
2023-01-17T13:15:03.265Z,72.40
2023-01-17T13:17:52.962Z,71.85
2023-01-17T13:20:32.385Z,71.33
2023-01-17T13:23:51.259Z,71.04
2023-01-17T13:26:50.840Z,71.22
2023-01-17T13:29:52.732Z,70.22
2023-01-17T13:32:45.713Z,70.70
2023-01-17T13:35:28.115Z,71.10
2023-01-17T13:38:24.587Z,70.65
2023-01-17T13:41:00.866Z,69.95
2023-01-17T13:43:39.196Z,69.68
2023-01-17T13:46:07.778Z,69.36
2023-01-17T13:48:37.829Z,69.75
2023-01-17T13:51:08.639Z,70.07
2023-01-17T13:53:44.443Z,70.25
2023-01-17T13:56:23.944Z,70.35
2023-01-17T13:59:01.666Z,70.36
2023-01-17T14:01:46.556Z,70.48
2023-01-17T14:04:14.349Z,69.92
2023-01-17T14:06:46.314Z,70.13
2023-01-17T14:09:28.217Z,69.79
2023-01-17T14:12:19.785Z,69.62
2023-01-17T14:14:51.401Z,69.86
2023-01-17T14:17:26.340Z,70.05
2023-01-17T14:20:11.968Z,69.85
2023-01-17T14:22:50.666Z,70.01
2023-01-17T14:25:24.520Z,70.04
2023-01-17T14:27:56.851Z,70.17
2023-01-17T14:30:34.643Z,70.26
2023-01-17T14:33:29.099Z,70.17
2023-01-17T14:36:04.750Z,70.02
2023-01-17T14:38:34.272Z,69.68
2023-01-17T14:41:07.237Z,69.37
2023-01-17T14:43:39.034Z,69.26
2023-01-17T14:46:30.606Z,69.00
2023-01-17T14:49:09.409Z,68.54
2023-01-17T14:51:38.379Z,68.46
2023-01-17T14:54:17.609Z,68.01
2023-01-17T14:56:47.173Z,68.01
2023-01-17T14:59:21.534Z,67.95
2023-01-17T15:02:08.640Z,68.07
2023-01-17T15:04:33.647Z,68.06
2023-01-17T15:07:01.353Z,68.07
2023-01-17T15:09:34.239Z,68.26
2023-01-17T15:12:02.409Z,68.41
2023-01-17T15:14:34.557Z,68.45
2023-01-17T15:17:23.827Z,68.47
2023-01-17T15:20:01.120Z,68.31
2023-01-17T15:22:29.490Z,68.15
2023-01-17T15:24:58.053Z,68.34
2023-01-17T15:27:26.206Z,68.69
2023-01-17T15:29:56.005Z,69.21
2023-01-17T15:32:30.068Z,69.37
2023-01-17T15:35:00.608Z,69.52
2023-01-17T15:37:33.325Z,69.80
2023-01-17T15:40:23.577Z,69.90
2023-01-17T15:42:56.124Z,70.22
2023-01-17T15:45:28.407Z,70.66
2023-01-17T15:47:57.075Z,70.72
2023-01-17T15:50:31.616Z,70.79
2023-01-17T15:53:04.249Z,70.61
2023-01-17T15:55:34.886Z,70.39
2023-01-17T15:58:04.982Z,70.25
2023-01-17T16:00:41.325Z,69.96
2023-01-17T16:03:29.299Z,70.11
2023-01-17T16:06:02.504Z,70.19
2023-01-17T16:08:39.216Z,70.36
2023-01-17T16:11:11.107Z,70.57
2023-01-17T16:13:40.907Z,70.68
2023-01-17T16:16:14.141Z,70.74
2023-01-17T16:18:42.536Z,70.79
2023-01-17T16:21:23.901Z,70.75
2023-01-17T16:23:51.862Z,70.93
2023-01-17T16:26:19.573Z,71.07
2023-01-17T16:28:48.323Z,71.03
2023-01-17T16:31:17.434Z,71.12
2023-01-17T16:33:45.630Z,71.28
2023-01-17T16:36:16.146Z,71.37
2023-01-17T16:38:45.348Z,71.43
2023-01-17T16:41:12.907Z,71.52
2023-01-17T16:43:40.565Z,71.64
2023-01-17T16:46:11.416Z,71.81
2023-01-17T16:48:39.209Z,71.90
2023-01-17T16:51:07.918Z,72.00
2023-01-17T16:53:37.062Z,72.07
2023-01-17T16:56:13.036Z,72.20
2023-01-17T16:58:41.452Z,72.25
2023-01-17T17:01:15.224Z,72.36
2023-01-17T17:03:44.072Z,72.49
2023-01-17T17:06:12.514Z,72.61
2023-01-17T17:08:40.154Z,72.95
2023-01-17T17:11:14.891Z,72.93
2023-01-17T17:13:48.244Z,73.12
2023-01-17T17:16:26.784Z,73.24
2023-01-17T17:18:59.242Z,73.41
2023-01-17T17:21:29.459Z,73.50
2023-01-17T17:23:59.772Z,73.77
2023-01-17T17:26:36.493Z,73.79
2023-01-17T17:29:05.490Z,73.93
2023-01-17T17:31:33.562Z,73.97
2023-01-17T17:34:03.319Z,73.94
2023-01-17T17:36:31.285Z,73.92
2023-01-17T17:39:01.269Z,73.80
2023-01-17T17:41:32.898Z,73.74
2023-01-17T17:44:02.424Z,73.61
2023-01-17T17:46:31.222Z,73.52
2023-01-17T17:48:59.570Z,73.37
2023-01-17T17:51:37.226Z,73.21
2023-01-17T17:54:11.586Z,73.11
2023-01-17T17:56:40.375Z,73.11
2023-01-17T17:59:09.631Z,73.04
2023-01-17T18:01:40.525Z,73.06
2023-01-17T18:04:08.853Z,73.06
2023-01-17T18:06:38.128Z,73.09
2023-01-17T18:09:07.730Z,73.11
2023-01-17T18:11:38.222Z,73.18
2023-01-17T18:14:10.498Z,73.21
2023-01-17T18:16:41.902Z,73.30
2023-01-17T18:19:16.155Z,73.32
2023-01-17T18:21:44.225Z,73.35
2023-01-17T18:24:18.982Z,73.46
2023-01-17T18:26:51.457Z,73.62
2023-01-17T18:29:22.355Z,73.77
2023-01-17T18:31:51.689Z,73.87
2023-01-17T18:34:23.340Z,74.01
2023-01-17T18:36:51.774Z,74.21
2023-01-17T18:39:24.033Z,74.36
2023-01-17T18:41:52.330Z,74.54
2023-01-17T18:44:21.989Z,74.67
2023-01-17T18:46:58.319Z,74.95
2023-01-17T18:49:26.122Z,74.95
2023-01-17T18:51:53.732Z,75.24
2023-01-17T18:54:21.464Z,75.33
2023-01-17T18:56:49.136Z,75.47
2023-01-17T18:59:19.388Z,75.55
2023-01-17T19:01:47.550Z,75.57
2023-01-17T19:04:17.023Z,75.51
2023-01-17T19:06:47.372Z,75.32
2023-01-17T19:09:16.365Z,74.56
2023-01-17T19:11:45.064Z,74.57
2023-01-17T19:14:13.366Z,74.46
2023-01-17T19:16:42.223Z,74.36
2023-01-17T19:19:14.441Z,74.03
2023-01-17T19:21:42.512Z,73.80
2023-01-17T19:24:12.529Z,73.59
2023-01-17T19:26:41.090Z,73.59
2023-01-17T19:29:09.072Z,73.47
2023-01-17T19:31:43.278Z,73.50
2023-01-17T19:34:16.915Z,73.51
2023-01-17T19:36:44.449Z,73.49
2023-01-17T19:39:12.026Z,73.55
2023-01-17T19:41:45.115Z,73.48
2023-01-17T19:44:14.490Z,73.42
2023-01-17T19:46:43.255Z,73.45
2023-01-17T19:49:11.156Z,73.56
2023-01-17T19:51:39.293Z,73.66
2023-01-17T19:54:07.715Z,73.71
2023-01-17T19:56:35.538Z,73.80
2023-01-17T19:59:03.288Z,73.81
2023-01-17T20:01:33.290Z,73.91
2023-01-17T20:04:02.940Z,74.01
2023-01-17T20:06:34.942Z,74.08
2023-01-17T20:09:04.233Z,73.98
2023-01-17T20:11:32.378Z,74.01
2023-01-17T20:14:00.412Z,74.05
2023-01-17T20:16:31.327Z,74.27
2023-01-17T20:19:01.643Z,74.53
2023-01-17T20:21:31.002Z,74.67
2023-01-17T20:24:02.477Z,74.95
2023-01-17T20:26:36.505Z,75.03
2023-01-17T20:29:14.162Z,75.09
2023-01-17T20:31:42.818Z,75.09
2023-01-17T20:34:13.549Z,74.95
2023-01-17T20:36:41.891Z,74.72
2023-01-17T20:39:11.327Z,74.73
2023-01-17T20:41:41.771Z,74.77
2023-01-17T20:44:13.359Z,74.17
2023-01-17T20:46:41.520Z,74.26
2023-01-17T20:49:15.996Z,74.13
2023-01-17T20:51:45.650Z,73.94
2023-01-17T20:54:17.652Z,74.01
2023-01-17T20:56:46.870Z,73.95
2023-01-17T20:59:21.138Z,73.88
2023-01-17T21:01:50.140Z,73.78
2023-01-17T21:04:20.278Z,73.73
2023-01-17T21:06:49.690Z,73.63
2023-01-17T21:09:19.375Z,73.57
2023-01-17T21:11:48.148Z,73.67
2023-01-17T21:14:15.810Z,73.69
2023-01-17T21:16:43.965Z,73.69
2023-01-17T21:19:14.340Z,73.70
2023-01-17T21:21:41.782Z,73.71
2023-01-17T21:24:11.440Z,73.82
2023-01-17T21:26:40.849Z,73.91
2023-01-17T21:29:08.681Z,74.02
2023-01-17T21:31:38.041Z,74.19
2023-01-17T21:34:09.342Z,74.20
2023-01-17T21:36:41.682Z,74.24
2023-01-17T21:39:16.223Z,74.36
2023-01-17T21:41:47.544Z,74.45
2023-01-17T21:44:19.597Z,74.49
2023-01-17T21:46:48.162Z,74.53
2023-01-17T21:49:16.675Z,74.66
2023-01-17T21:51:53.210Z,74.87
2023-01-17T21:54:31.053Z,74.99
2023-01-17T21:57:16.792Z,75.05
2023-01-17T21:59:44.427Z,75.21
2023-01-17T22:02:11.988Z,75.41
2023-01-17T22:04:39.953Z,75.39
2023-01-17T22:07:07.338Z,75.03
2023-01-17T22:09:34.827Z,74.57
2023-01-17T22:12:02.390Z,74.72
2023-01-17T22:14:30.012Z,74.84
2023-01-17T22:16:57.688Z,74.85
2023-01-17T22:19:25.111Z,74.48
2023-01-17T22:21:54.262Z,74.48
2023-01-17T22:24:21.900Z,74.51
2023-01-17T22:26:49.320Z,74.49
2023-01-17T22:29:18.405Z,74.18
2023-01-17T22:31:46.218Z,74.07
2023-01-17T22:34:14.930Z,73.94
2023-01-17T22:36:42.268Z,74.00
2023-01-17T22:39:10.302Z,73.89
2023-01-17T22:41:38.556Z,74.04
2023-01-17T22:44:07.091Z,74.24
2023-01-17T22:46:40.945Z,74.40
2023-01-17T22:49:12.755Z,74.58
2023-01-17T22:51:40.121Z,74.58
2023-01-17T22:54:07.739Z,74.79
2023-01-17T22:56:35.937Z,74.70
2023-01-17T22:59:05.266Z,74.84
2023-01-17T23:01:32.975Z,74.83
2023-01-17T23:04:03.593Z,74.76
2023-01-17T23:06:37.952Z,74.79
2023-01-17T23:09:13.525Z,74.95
2023-01-17T23:11:49.383Z,75.37
2023-01-17T23:14:24.638Z,75.45
2023-01-17T23:17:14.688Z,75.74
2023-01-17T23:19:51.488Z,75.92
2023-01-17T23:22:26.229Z,76.21
2023-01-17T23:25:04.619Z,76.38
2023-01-17T23:27:58.024Z,76.75
2023-01-17T23:30:36.972Z,76.59
2023-01-17T23:33:14.794Z,76.02
2023-01-17T23:35:45.705Z,75.88
2023-01-17T23:38:28.267Z,75.96
2023-01-17T23:41:26.462Z,76.05
2023-01-17T23:43:56.997Z,76.05
2023-01-17T23:46:25.927Z,75.80
2023-01-17T23:48:54.374Z,75.77
2023-01-17T23:51:22.301Z,75.68
2023-01-17T23:53:51.556Z,75.33
2023-01-17T23:56:22.626Z,75.27
2023-01-17T23:58:50.712Z,75.28
